Time;durP1;ratioP1;P1;durP2;ratioP2;P2;SDS_P1;SDS_P2;PMS_P1;PMS_P2;Temp;Humidity;BMP_temperature;BMP_pressure;BME280_temperature;BME280_humidity;BME280_pressure;Samples;Min_cycle;Max_cycle;Signal;HPM_P1;HPM_P2
2021/12/26 06:00:49;;;;;;;16.00;12.13;;;8.60;97.20;;;;;;1708536;28;20605;-81
2021/12/26 06:01:40;;;;;;;15.48;13.30;;;8.60;97.20;;;;;;1709099;28;20210;-81
2021/12/26 06:02:32;;;;;;;14.93;12.83;;;8.60;97.20;;;;;;1708843;29;20285;-81
2021/12/26 06:03:22;;;;;;;14.75;12.63;;;8.50;97.20;;;;;;1708136;29;20241;-81
2021/12/26 06:04:14;;;;;;;16.53;13.50;;;8.50;97.20;;;;;;1708412;29;20210;-81
2021/12/26 06:05:06;;;;;;;15.13;11.70;;;8.50;97.20;;;;;;1708683;29;20211;-81
2021/12/26 06:05:57;;;;;;;15.95;13.55;;;8.50;97.20;;;;;;1708380;28;20214;-81
2021/12/26 06:06:48;;;;;;;16.70;13.40;;;8.50;97.20;;;;;;1709022;29;20574;-81
2021/12/26 06:07:40;;;;;;;16.03;13.20;;;8.50;97.20;;;;;;1708318;28;20199;-81
2021/12/26 06:08:30;;;;;;;16.63;13.10;;;8.50;97.20;;;;;;1708918;28;20217;-81
2021/12/26 06:09:22;;;;;;;16.00;13.53;;;8.60;97.20;;;;;;1708618;28;20222;-81
2021/12/26 06:10:14;;;;;;;14.82;13.07;;;8.60;97.20;;;;;;1708702;28;20206;-80
2021/12/26 06:11:06;;;;;;;15.00;13.35;;;8.60;97.20;;;;;;1708323;28;20206;-81
2021/12/26 06:11:56;;;;;;;16.50;14.13;;;8.60;97.20;;;;;;1708432;28;20619;-81
2021/12/26 06:12:48;;;;;;;14.60;13.17;;;8.60;97.20;;;;;;1708690;29;20329;-80
2021/12/26 06:13:39;;;;;;;17.35;12.95;;;8.60;97.20;;;;;;1713441;28;20469;-81
2021/12/26 06:14:31;;;;;;;15.47;13.77;;;8.60;97.20;;;;;;1715108;28;20204;-81
2021/12/26 06:15:22;;;;;;;34.13;13.95;;;8.60;97.20;;;;;;1716548;28;20201;-81
2021/12/26 06:16:15;;;;;;;17.57;13.70;;;8.60;97.20;;;;;;1715927;28;20277;-81
2021/12/26 06:17:05;;;;;;;15.75;13.90;;;8.60;97.20;;;;;;1716216;28;20940;-80
2021/12/26 06:17:57;;;;;;;17.43;12.57;;;8.60;97.20;;;;;;1716006;28;20661;-80
2021/12/26 06:18:48;;;;;;;29.13;13.48;;;8.60;97.20;;;;;;1716279;28;20960;-81
2021/12/26 06:19:40;;;;;;;18.87;14.33;;;8.60;97.20;;;;;;1716584;28;20645;-81
2021/12/26 06:20:30;;;;;;;19.30;13.40;;;8.60;97.20;;;;;;1716124;28;20206;-80
2021/12/26 06:21:23;;;;;;;27.23;14.60;;;8.50;97.20;;;;;;1716826;28;20208;-81
2021/12/26 06:22:15;;;;;;;21.35;13.95;;;8.50;97.20;;;;;;1716364;28;20216;-81
2021/12/26 06:23:07;;;;;;;64.10;14.90;;;8.50;97.20;;;;;;1715911;28;20202;-81
2021/12/26 06:23:58;;;;;;;50.83;15.18;;;8.50;97.20;;;;;;1716443;28;20610;-81
2021/12/26 06:24:50;;;;;;;17.47;14.40;;;8.50;97.20;;;;;;1716307;28;20197;-81
2021/12/26 06:25:40;;;;;;;20.00;14.57;;;8.50;97.20;;;;;;1716303;28;20237;-81
2021/12/26 06:26:33;;;;;;;41.87;14.90;;;8.40;97.20;;;;;;1716169;28;20676;-81
2021/12/26 06:27:24;;;;;;;72.15;14.07;;;8.40;97.20;;;;;;1711917;28;20199;-81
2021/12/26 06:28:16;;;;;;;35.15;13.80;;;8.40;97.20;;;;;;1710209;28;20202;-81
2021/12/26 06:29:06;;;;;;;32.92;14.00;;;8.50;97.20;;;;;;1709791;29;20622;-81
2021/12/26 06:29:58;;;;;;;33.63;14.60;;;8.50;97.20;;;;;;1709981;29;20245;-81
2021/12/26 06:30:49;;;;;;;45.40;15.85;;;8.50;97.20;;;;;;1710027;28;20633;-81
2021/12/26 06:31:42;;;;;;;17.30;13.63;;;8.40;97.20;;;;;;1709315;29;20202;-81
2021/12/26 06:32:33;;;;;;;20.55;14.68;;;8.40;97.20;;;;;;1709414;28;20214;-81
2021/12/26 06:33:24;;;;;;;17.40;14.27;;;8.40;97.20;;;;;;1709174;28;20241;-81
2021/12/26 06:34:15;;;;;;;41.97;15.50;;;8.40;97.20;;;;;;1709393;28;20225;-81
2021/12/26 06:35:08;;;;;;;20.63;14.17;;;8.40;97.20;;;;;;1709463;28;20209;-81
2021/12/26 06:35:59;;;;;;;27.83;13.88;;;8.40;97.20;;;;;;1709486;28;20309;-81
2021/12/26 06:36:51;;;;;;;38.37;14.83;;;8.40;97.20;;;;;;1709442;29;20261;-80
2021/12/26 06:37:42;;;;;;;19.08;14.15;;;8.40;97.20;;;;;;1709862;28;20202;-80
2021/12/26 06:38:34;;;;;;;17.37;14.80;;;8.40;97.20;;;;;;1709367;28;20198;-81
2021/12/26 06:39:24;;;;;;;23.15;14.30;;;8.40;97.20;;;;;;1709022;28;20265;-81
2021/12/26 06:40:16;;;;;;;18.83;14.10;;;8.40;97.20;;;;;;1709377;28;20210;-81
2021/12/26 06:41:08;;;;;;;18.88;15.02;;;8.40;97.20;;;;;;1709851;28;20976;-81
2021/12/26 06:42:00;;;;;;;17.35;15.55;;;8.40;97.20;;;;;;1709582;28;20206;-80
2021/12/26 06:42:51;;;;;;;26.45;15.13;;;8.40;97.20;;;;;;1710150;28;20211;-81
2021/12/26 06:43:43;;;;;;;17.90;15.43;;;8.40;97.20;;;;;;1714011;28;20301;-81
2021/12/26 06:44:34;;;;;;;18.08;14.43;;;8.40;97.20;;;;;;1716409;28;20453;-81
2021/12/26 06:45:26;;;;;;;19.60;15.00;;;8.40;97.20;;;;;;1716000;28;20280;-81
2021/12/26 06:46:17;;;;;;;18.10;14.68;;;8.40;97.20;;;;;;1716083;28;20206;-81
2021/12/26 06:47:10;;;;;;;17.30;14.55;;;8.40;97.20;;;;;;1715784;28;20198;-82
2021/12/26 06:48:02;;;;;;;16.98;14.30;;;8.40;97.20;;;;;;1716225;28;20213;-81
2021/12/26 06:48:54;;;;;;;18.58;13.93;;;8.40;97.20;;;;;;1715773;28;20735;-81
2021/12/26 06:49:45;;;;;;;24.88;15.65;;;8.40;97.20;;;;;;1716102;28;20205;-81
2021/12/26 06:50:37;;;;;;;18.17;15.00;;;8.40;97.20;;;;;;1715734;28;20216;-81
2021/12/26 06:51:28;;;;;;;16.70;13.73;;;8.40;97.20;;;;;;1716216;28;20670;-81
2021/12/26 06:52:20;;;;;;;17.30;12.90;;;8.40;97.20;;;;;;1716002;28;20576;-81
2021/12/26 06:53:11;;;;;;;15.90;13.68;;;8.40;97.20;;;;;;1716576;28;20206;-81
2021/12/26 06:54:03;;;;;;;15.52;13.45;;;8.40;97.20;;;;;;1715850;28;20635;-81
2021/12/26 06:54:54;;;;;;;20.85;14.27;;;8.30;97.20;;;;;;1716494;28;20210;-81
2021/12/26 06:55:46;;;;;;;15.73;13.87;;;8.30;97.20;;;;;;1716301;28;20201;-81
2021/12/26 06:56:37;;;;;;;15.20;13.40;;;8.30;97.20;;;;;;1716417;28;20233;-81
2021/12/26 06:57:29;;;;;;;18.53;14.17;;;8.30;97.20;;;;;;1715235;28;20202;-81
2021/12/26 06:58:20;;;;;;;15.90;13.48;;;8.20;97.20;;;;;;1716359;28;20205;-81
2021/12/26 06:59:12;;;;;;;14.68;12.85;;;8.20;97.20;;;;;;1715488;28;20257;-81
2021/12/26 07:00:04;;;;;;;16.70;13.63;;;8.20;97.20;;;;;;1714215;28;20219;-81
2021/12/26 07:00:56;;;;;;;17.48;14.27;;;8.20;97.20;;;;;;1715554;28;20206;-81
2021/12/26 07:01:47;;;;;;;17.85;14.27;;;8.20;97.20;;;;;;1713959;28;20235;-81
2021/12/26 07:02:40;;;;;;;15.40;13.70;;;8.20;97.20;;;;;;1714215;28;20190;-81
2021/12/26 07:03:31;;;;;;;15.90;14.05;;;8.20;97.20;;;;;;1712403;28;20202;-81
2021/12/26 07:04:23;;;;;;;16.93;14.27;;;8.20;97.20;;;;;;1712809;28;20198;-80
2021/12/26 07:05:14;;;;;;;18.98;14.30;;;8.20;97.20;;;;;;1713748;28;20684;-81
2021/12/26 07:06:06;;;;;;;15.27;13.63;;;8.30;97.20;;;;;;1714259;28;20699;-81
2021/12/26 07:06:57;;;;;;;16.35;14.63;;;8.30;97.20;;;;;;1716178;28;20206;-81
2021/12/26 07:07:48;;;;;;;17.00;14.67;;;8.30;97.20;;;;;;1715670;28;20205;-81
2021/12/26 07:08:39;;;;;;;21.65;14.50;;;8.30;97.20;;;;;;1713200;28;20205;-81
2021/12/26 07:09:31;;;;;;;15.57;13.97;;;8.30;97.20;;;;;;1712475;28;20381;-81
2021/12/26 07:10:22;;;;;;;17.45;15.10;;;8.30;97.20;;;;;;1712891;28;20229;-81
2021/12/26 07:11:15;;;;;;;24.90;14.90;;;8.30;97.20;;;;;;1712069;28;20197;-81
2021/12/26 07:12:07;;;;;;;17.52;14.95;;;8.30;97.20;;;;;;1711767;28;20583;-81
2021/12/26 07:12:59;;;;;;;16.67;14.82;;;8.30;97.20;;;;;;1712745;28;20230;-81
2021/12/26 07:13:50;;;;;;;23.25;14.52;;;8.30;97.20;;;;;;1712444;28;20225;-81
2021/12/26 07:14:42;;;;;;;16.90;15.07;;;8.30;97.20;;;;;;1711614;28;20653;-81
2021/12/26 07:15:33;;;;;;;16.58;14.88;;;8.40;97.20;;;;;;1712404;28;20195;-81
2021/12/26 07:16:25;;;;;;;16.53;14.83;;;8.30;97.20;;;;;;1713063;28;20199;-81
2021/12/26 07:17:16;;;;;;;17.42;15.57;;;8.30;97.20;;;;;;1711624;28;20824;-81
2021/12/26 07:18:09;;;;;;;16.67;14.90;;;8.30;97.20;;;;;;1711548;28;20271;-81
2021/12/26 07:19:00;;;;;;;18.05;15.00;;;8.30;97.20;;;;;;1710922;28;20438;-81
2021/12/26 07:19:52;;;;;;;17.47;15.30;;;8.40;97.20;;;;;;1709238;29;20201;-81
2021/12/26 07:20:43;;;;;;;16.45;14.73;;;8.40;97.20;;;;;;1709403;28;20698;-81
2021/12/26 07:21:34;;;;;;;16.37;14.23;;;8.40;97.20;;;;;;1709323;28;20603;-81
2021/12/26 07:22:25;;;;;;;18.50;15.98;;;8.40;97.20;;;;;;1709064;28;20446;-81
2021/12/26 07:23:16;;;;;;;25.10;16.70;;;8.40;97.20;;;;;;1709064;28;20281;-81
2021/12/26 07:24:08;;;;;;;17.87;15.97;;;8.40;97.20;;;;;;1713805;28;20476;-81
2021/12/26 07:24:59;;;;;;;18.35;15.88;;;8.40;97.20;;;;;;1715645;28;20453;-81
2021/12/26 07:25:51;;;;;;;19.10;17.00;;;8.40;97.20;;;;;;1715823;28;20202;-81
2021/12/26 07:26:41;;;;;;;17.50;15.57;;;8.40;97.20;;;;;;1715069;28;20637;-81
2021/12/26 07:27:34;;;;;;;20.20;16.80;;;8.40;97.20;;;;;;1712088;28;20213;-81
2021/12/26 07:28:25;;;;;;;21.25;17.17;;;8.40;97.20;;;;;;1711699;28;20245;-81
2021/12/26 07:29:16;;;;;;;20.70;16.67;;;8.40;97.20;;;;;;1712541;28;20198;-81
2021/12/26 07:30:09;;;;;;;19.23;17.27;;;8.50;97.20;;;;;;1712386;28;20194;-81
2021/12/26 07:31:01;;;;;;;18.65;14.32;;;8.50;97.20;;;;;;1711190;28;20636;-81
2021/12/26 07:31:51;;;;;;;17.25;14.98;;;8.50;97.20;;;;;;1712292;28;20243;-81
2021/12/26 07:32:43;;;;;;;18.63;16.43;;;8.50;97.20;;;;;;1712715;28;20198;-82
2021/12/26 07:33:35;;;;;;;19.33;16.05;;;8.50;97.20;;;;;;1711447;28;20441;-81
2021/12/26 07:34:28;;;;;;;19.20;16.48;;;8.50;97.20;;;;;;1711731;28;20203;-81
2021/12/26 07:35:19;;;;;;;19.33;16.40;;;8.50;97.20;;;;;;1715832;28;20205;-81
2021/12/26 07:36:11;;;;;;;18.27;16.30;;;8.50;97.20;;;;;;1715424;28;20208;-81
2021/12/26 07:37:03;;;;;;;17.20;15.40;;;8.50;97.20;;;;;;1715677;28;20545;-81
2021/12/26 07:37:54;;;;;;;18.60;16.08;;;8.50;97.20;;;;;;1715782;28;20293;-81
2021/12/26 07:38:45;;;;;;;20.63;18.45;;;8.50;97.20;;;;;;1715193;28;20236;-81
2021/12/26 07:39:38;;;;;;;21.60;17.33;;;8.50;97.20;;;;;;1715292;28;20201;-81
2021/12/26 07:40:28;;;;;;;19.52;17.42;;;8.50;97.20;;;;;;1715296;28;20222;-81
2021/12/26 07:41:20;;;;;;;18.03;16.17;;;8.50;97.20;;;;;;1715405;28;20206;-81
2021/12/26 07:42:11;;;;;;;19.48;17.42;;;8.50;97.20;;;;;;1715863;28;20258;-81
2021/12/26 07:43:03;;;;;;;20.90;18.77;;;8.50;97.20;;;;;;1715411;28;20201;-81
2021/12/26 07:43:54;;;;;;;20.50;18.40;;;8.50;97.20;;;;;;1715548;28;20786;-81
2021/12/26 07:44:46;;;;;;;19.08;16.98;;;8.50;97.20;;;;;;1715467;28;20299;-81
2021/12/26 07:45:37;;;;;;;18.70;16.80;;;8.50;97.20;;;;;;1715589;28;20244;-81
2021/12/26 07:46:28;;;;;;;19.43;17.33;;;8.50;97.20;;;;;;1715451;28;20216;-81
2021/12/26 07:47:19;;;;;;;18.20;16.40;;;8.60;97.20;;;;;;1715691;28;20483;-81
2021/12/26 07:48:11;;;;;;;18.13;16.33;;;8.50;97.20;;;;;;1715038;28;20198;-81
2021/12/26 07:49:03;;;;;;;18.08;16.27;;;8.50;97.20;;;;;;1709124;28;20230;-81
2021/12/26 07:49:55;;;;;;;18.15;16.23;;;8.50;97.20;;;;;;1708658;28;20210;-81
2021/12/26 07:50:46;;;;;;;20.00;18.00;;;8.50;97.20;;;;;;1708634;28;20251;-81
2021/12/26 07:51:37;;;;;;;18.90;17.00;;;8.50;97.20;;;;;;1708574;29;20199;-81
2021/12/26 07:52:33;;;;;;;18.23;16.42;;;8.50;97.20;;;;;;1708967;29;20210;-81
2021/12/26 07:53:24;;;;;;;17.08;14.63;;;8.50;97.20;;;;;;1708905;28;20286;-81
2021/12/26 07:54:16;;;;;;;16.00;14.30;;;8.50;97.20;;;;;;1708776;28;20210;-81
2021/12/26 07:55:11;;;;;;;16.65;13.38;;;8.50;97.20;;;;;;1708661;29;20210;-81
2021/12/26 07:56:02;;;;;;;16.27;14.57;;;8.40;97.20;;;;;;1708795;28;20211;-81
2021/12/26 07:56:55;;;;;;;15.95;14.25;;;8.40;97.20;;;;;;1708542;28;20610;-81
2021/12/26 07:57:48;;;;;;;17.48;15.68;;;8.40;97.20;;;;;;1708526;28;20283;-81
2021/12/26 07:58:40;;;;;;;16.10;14.50;;;8.40;97.20;;;;;;1708847;29;20218;-81
2021/12/26 07:59:30;;;;;;;16.38;14.68;;;8.30;97.20;;;;;;1703355;29;20203;-81
2021/12/26 08:00:22;;;;;;;21.20;17.23;;;8.30;97.20;;;;;;1703276;29;20237;-81
2021/12/26 08:01:13;;;;;;;17.52;15.82;;;8.30;97.20;;;;;;1707454;28;20209;-81
2021/12/26 08:02:06;;;;;;;17.57;15.77;;;8.40;97.20;;;;;;1710183;28;20203;-81
2021/12/26 08:02:58;;;;;;;16.48;14.75;;;8.40;97.20;;;;;;1709601;28;20209;-81
2021/12/26 08:03:50;;;;;;;16.60;14.80;;;8.40;97.20;;;;;;1709607;28;20698;-81
2021/12/26 08:04:44;;;;;;;15.38;13.85;;;8.40;97.20;;;;;;1712761;28;20201;-81
2021/12/26 08:05:35;;;;;;;16.25;14.30;;;8.40;97.20;;;;;;1716448;28;20237;-81
2021/12/26 08:06:26;;;;;;;17.47;15.87;;;8.40;97.20;;;;;;1716174;28;20208;-81
2021/12/26 08:07:17;;;;;;;19.88;17.80;;;8.40;97.20;;;;;;1715704;28;20209;-81
2021/12/26 08:08:09;;;;;;;18.05;16.35;;;8.40;97.20;;;;;;1716581;28;20676;-81
2021/12/26 08:09:00;;;;;;;19.10;17.20;;;8.40;97.20;;;;;;1716056;28;20213;-81
2021/12/26 08:09:52;;;;;;;17.70;16.00;;;8.40;97.20;;;;;;1716187;28;20202;-81
2021/12/26 08:10:43;;;;;;;18.83;15.65;;;8.40;97.20;;;;;;1716110;28;20579;-81
2021/12/26 08:11:35;;;;;;;16.30;14.47;;;8.50;97.20;;;;;;1715676;28;20197;-81
2021/12/26 08:12:26;;;;;;;16.27;14.18;;;8.40;97.20;;;;;;1715948;28;20453;-81
2021/12/26 08:13:18;;;;;;;18.05;15.43;;;8.40;97.20;;;;;;1715862;28;20732;-81
2021/12/26 08:14:09;;;;;;;17.67;15.77;;;8.40;97.20;;;;;;1715972;28;20318;-81
2021/12/26 08:15:02;;;;;;;16.40;14.50;;;8.40;97.20;;;;;;1715351;28;20210;-81
2021/12/26 08:15:52;;;;;;;18.67;15.45;;;8.40;97.20;;;;;;1716142;28;20960;-81
2021/12/26 08:16:44;;;;;;;18.27;16.33;;;8.50;97.20;;;;;;1715890;28;20269;-80
2021/12/26 08:17:35;;;;;;;21.27;19.17;;;8.50;97.20;;;;;;1715921;28;20210;-81
2021/12/26 08:18:27;;;;;;;18.95;16.95;;;8.50;97.20;;;;;;1716028;28;20198;-81
2021/12/26 08:19:18;;;;;;;19.27;17.30;;;8.50;97.20;;;;;;1716229;28;20333;-81
2021/12/26 08:20:12;;;;;;;21.30;19.00;;;8.50;97.20;;;;;;1716231;28;20260;-81
2021/12/26 08:21:03;;;;;;;18.45;16.38;;;8.50;97.20;;;;;;1714518;28;20555;-81
2021/12/26 08:21:56;;;;;;;20.23;16.50;;;8.50;97.20;;;;;;1716000;28;20593;-80
2021/12/26 08:22:46;;;;;;;17.60;15.80;;;8.50;97.20;;;;;;1716323;28;20464;-80
2021/12/26 08:23:38;;;;;;;19.73;17.50;;;8.60;97.20;;;;;;1715990;28;20205;-81
2021/12/26 08:24:29;;;;;;;20.10;18.20;;;8.60;97.20;;;;;;1715947;28;20202;-80
2021/12/26 08:25:21;;;;;;;21.23;19.00;;;8.60;97.20;;;;;;1716322;28;20205;-81
2021/12/26 08:26:12;;;;;;;19.60;17.50;;;8.60;97.20;;;;;;1716093;28;20208;-81
2021/12/26 08:27:04;;;;;;;19.65;17.50;;;8.60;97.20;;;;;;1715919;28;20202;-80
2021/12/26 08:27:55;;;;;;;17.70;15.80;;;8.60;97.20;;;;;;1715614;28;20233;-80
2021/12/26 08:28:47;;;;;;;17.23;15.30;;;8.60;97.20;;;;;;1715009;28;20244;-81
2021/12/26 08:29:38;;;;;;;17.52;15.65;;;8.60;97.20;;;;;;1716022;28;20464;-81
2021/12/26 08:30:30;;;;;;;18.50;16.50;;;8.60;97.20;;;;;;1715886;28;20216;-81
2021/12/26 08:31:22;;;;;;;19.65;17.40;;;8.60;97.20;;;;;;1715768;28;20217;-80
2021/12/26 08:32:16;;;;;;;17.75;15.90;;;8.60;97.20;;;;;;1715614;28;20282;-80
2021/12/26 08:33:07;;;;;;;20.45;18.25;;;8.60;97.20;;;;;;1715676;28;20293;-81
2021/12/26 08:33:59;;;;;;;18.02;16.23;;;8.60;97.20;;;;;;1715194;28;20221;-80
2021/12/26 08:34:51;;;;;;;19.33;16.85;;;8.60;97.20;;;;;;1715856;28;20209;-81
2021/12/26 08:35:46;;;;;;;17.00;15.20;;;8.60;97.20;;;;;;1715403;28;20665;-79
2021/12/26 08:36:37;;;;;;;17.58;15.68;;;8.60;97.20;;;;;;1715521;28;20318;-80
2021/12/26 08:37:29;;;;;;;16.30;14.70;;;8.60;97.20;;;;;;1713428;28;20321;-81
2021/12/26 08:38:21;;;;;;;20.80;18.63;;;8.60;97.20;;;;;;1714447;28;20496;-81
2021/12/26 08:39:12;;;;;;;18.05;16.15;;;8.60;97.20;;;;;;1714642;28;20197;-81
2021/12/26 08:40:04;;;;;;;21.13;18.67;;;8.60;97.20;;;;;;1715227;28;20259;-80
2021/12/26 08:40:56;;;;;;;20.10;18.00;;;8.60;97.20;;;;;;1715003;28;20747;-81
2021/12/26 08:41:48;;;;;;;17.77;15.93;;;8.60;97.20;;;;;;1715096;28;20205;-82
2021/12/26 08:42:40;;;;;;;19.83;17.75;;;8.60;97.20;;;;;;1714825;28;20197;-81
2021/12/26 08:43:31;;;;;;;20.42;18.13;;;8.60;97.20;;;;;;1715198;28;20677;-81
2021/12/26 08:44:24;;;;;;;19.70;17.70;;;8.60;97.20;;;;;;1714795;28;20621;-81
2021/12/26 08:45:14;;;;;;;19.77;17.75;;;8.50;97.20;;;;;;1714991;28;20453;-81
2021/12/26 08:46:06;;;;;;;19.93;17.83;;;8.50;97.20;;;;;;1714838;28;20296;-80
2021/12/26 08:46:57;;;;;;;20.05;17.95;;;8.50;97.20;;;;;;1715357;28;20825;-80
2021/12/26 08:47:49;;;;;;;19.03;17.03;;;8.50;97.20;;;;;;1714817;28;20292;-81
2021/12/26 08:48:40;;;;;;;19.33;17.40;;;8.50;97.20;;;;;;1714652;28;20206;-80
2021/12/26 08:49:32;;;;;;;19.17;17.03;;;8.50;97.20;;;;;;1714904;28;20197;-80
2021/12/26 08:50:26;;;;;;;19.05;17.15;;;8.50;97.20;;;;;;1714810;28;20209;-80
2021/12/26 08:51:19;;;;;;;18.70;16.70;;;8.50;97.20;;;;;;1711116;28;20194;-80
2021/12/26 08:52:11;;;;;;;24.02;20.25;;;8.60;97.20;;;;;;1708217;29;20202;-80
2021/12/26 08:53:02;;;;;;;19.42;17.20;;;8.60;97.20;;;;;;1709779;28;20210;-80
2021/12/26 08:53:53;;;;;;;19.15;17.02;;;8.60;97.20;;;;;;1714949;28;20225;-80
2021/12/26 08:54:45;;;;;;;19.20;16.23;;;8.60;97.20;;;;;;1712734;28;20206;-80
2021/12/26 08:55:36;;;;;;;16.85;15.07;;;8.60;97.20;;;;;;1708086;28;20722;-80
2021/12/26 08:56:28;;;;;;;16.60;14.90;;;8.70;97.20;;;;;;1707738;28;20209;-80
2021/12/26 08:57:18;;;;;;;18.23;16.42;;;8.70;97.20;;;;;;1707771;28;20206;-80
2021/12/26 08:58:10;;;;;;;16.30;14.70;;;8.70;97.20;;;;;;1708020;28;20202;-80
2021/12/26 08:59:01;;;;;;;16.80;14.98;;;8.70;97.20;;;;;;1708163;29;20588;-81
2021/12/26 08:59:53;;;;;;;18.97;16.53;;;8.70;97.20;;;;;;1708238;29;20202;-80
2021/12/26 09:00:44;;;;;;;18.90;16.98;;;8.70;97.20;;;;;;1708233;28;20230;-81
2021/12/26 09:01:36;;;;;;;18.70;16.73;;;8.70;97.20;;;;;;1708046;28;20209;-80
2021/12/26 09:02:27;;;;;;;20.15;18.10;;;8.70;97.20;;;;;;1707904;28;20454;-80
2021/12/26 09:03:19;;;;;;;18.23;16.43;;;8.70;97.20;;;;;;1708004;29;20198;-81
2021/12/26 09:04:10;;;;;;;19.10;17.10;;;8.60;97.20;;;;;;1708078;29;20624;-81
2021/12/26 09:05:01;;;;;;;19.43;17.30;;;8.70;97.20;;;;;;1707965;28;20572;-81
2021/12/26 09:05:52;;;;;;;18.67;16.73;;;8.70;97.20;;;;;;1708181;29;20237;-80
2021/12/26 09:06:45;;;;;;;20.43;18.33;;;8.70;97.20;;;;;;1707921;28;20221;-80
2021/12/26 09:07:37;;;;;;;19.42;17.42;;;8.70;97.20;;;;;;1714340;28;20388;-81
2021/12/26 09:08:28;;;;;;;19.35;17.05;;;8.70;97.20;;;;;;1714238;28;20225;-81
2021/12/26 09:09:20;;;;;;;20.90;18.37;;;8.70;97.20;;;;;;1714359;28;20202;-80
2021/12/26 09:10:13;;;;;;;18.75;16.75;;;8.70;97.20;;;;;;1714568;28;20453;-80
2021/12/26 09:11:04;;;;;;;22.60;20.27;;;8.70;97.20;;;;;;1714628;28;20200;-80
2021/12/26 09:11:55;;;;;;;27.30;22.40;;;8.60;97.20;;;;;;1714610;28;20209;-83
2021/12/26 09:12:47;;;;;;;20.73;18.60;;;8.60;97.20;;;;;;1714492;28;20193;-82
2021/12/26 09:13:38;;;;;;;19.48;17.33;;;8.60;97.20;;;;;;1713282;28;20477;-87
2021/12/26 09:14:30;;;;;;;23.07;18.47;;;8.60;97.20;;;;;;1714068;28;20210;-77
2021/12/26 09:15:22;;;;;;;21.77;19.48;;;8.60;97.20;;;;;;1714620;28;20201;-83
2021/12/26 09:16:14;;;;;;;23.92;20.33;;;8.60;97.20;;;;;;1715139;28;20732;-80
2021/12/26 09:17:06;;;;;;;22.50;20.10;;;8.60;97.20;;;;;;1717671;28;20206;-80
2021/12/26 09:17:59;;;;;;;20.00;18.00;;;8.60;97.20;;;;;;1717160;28;20240;-81
2021/12/26 09:18:50;;;;;;;20.40;18.30;;;8.60;97.20;;;;;;1716067;28;20213;-79
2021/12/26 09:19:42;;;;;;;19.00;17.00;;;8.60;97.20;;;;;;1712699;28;20222;-78
2021/12/26 09:20:33;;;;;;;18.42;16.52;;;8.60;97.20;;;;;;1708795;29;20438;-79
2021/12/26 09:21:25;;;;;;;19.02;17.13;;;8.70;97.20;;;;;;1708399;28;20238;-81
2021/12/26 09:22:17;;;;;;;19.48;17.48;;;8.70;97.20;;;;;;1709355;28;20230;-81
2021/12/26 09:23:09;;;;;;;18.95;16.20;;;8.70;97.20;;;;;;1709337;28;20230;-81
2021/12/26 09:24:00;;;;;;;17.58;15.80;;;8.70;97.20;;;;;;1709704;28;20654;-80
2021/12/26 09:24:52;;;;;;;16.53;14.83;;;8.70;97.20;;;;;;1713544;28;20566;-80
2021/12/26 09:25:43;;;;;;;20.23;18.02;;;8.70;97.20;;;;;;1709528;28;20206;-80
2021/12/26 09:26:34;;;;;;;22.83;20.33;;;8.70;97.20;;;;;;1711470;28;20202;-80
2021/12/26 09:27:26;;;;;;;21.98;19.67;;;8.70;97.20;;;;;;1715841;28;20452;-80
2021/12/26 09:28:17;;;;;;;20.30;18.30;;;8.70;97.20;;;;;;1715844;28;20212;-80
2021/12/26 09:29:08;;;;;;;22.13;19.83;;;8.70;97.20;;;;;;1714901;28;20237;-78
2021/12/26 09:30:00;;;;;;;19.50;17.47;;;8.70;97.20;;;;;;1715283;28;20201;-80
2021/12/26 09:30:50;;;;;;;17.90;16.05;;;8.70;97.20;;;;;;1712755;28;20245;-81
2021/12/26 09:31:42;;;;;;;20.53;16.37;;;8.70;97.20;;;;;;1709675;28;20206;-79
2021/12/26 09:32:33;;;;;;;18.05;16.25;;;8.70;97.20;;;;;;1710304;28;20241;-80
2021/12/26 09:33:25;;;;;;;17.47;15.67;;;8.70;97.20;;;;;;1710050;28;20214;-80
2021/12/26 09:34:16;;;;;;;15.95;14.35;;;8.70;97.20;;;;;;1709788;29;20465;-80
2021/12/26 09:35:09;;;;;;;16.17;14.50;;;8.60;97.20;;;;;;1709467;28;20203;-80
2021/12/26 09:36:00;;;;;;;16.13;14.50;;;8.60;97.20;;;;;;1710281;28;20213;-81
2021/12/26 09:36:52;;;;;;;16.27;14.68;;;8.60;97.20;;;;;;1710085;28;20221;-80
2021/12/26 09:37:45;;;;;;;15.93;14.32;;;8.60;97.20;;;;;;1709847;28;20218;-81
2021/12/26 09:38:36;;;;;;;15.57;14.07;;;8.60;97.20;;;;;;1709674;28;20585;-80
2021/12/26 09:39:28;;;;;;;16.38;14.68;;;8.60;97.20;;;;;;1708174;28;20212;-80
2021/12/26 09:40:20;;;;;;;16.00;14.40;;;8.60;97.20;;;;;;1708154;28;20226;-82
2021/12/26 09:41:10;;;;;;;18.67;16.70;;;8.60;97.20;;;;;;1708686;28;20257;-81
2021/12/26 09:42:02;;;;;;;18.43;16.47;;;8.70;97.20;;;;;;1708207;28;20222;-81
2021/12/26 09:42:53;;;;;;;19.05;16.75;;;8.70;97.20;;;;;;1708375;29;20446;-79
2021/12/26 09:43:45;;;;;;;19.10;17.15;;;8.70;97.20;;;;;;1710963;28;20710;-80
2021/12/26 09:44:36;;;;;;;17.77;15.98;;;8.80;97.20;;;;;;1714847;28;20719;-80
2021/12/26 09:45:28;;;;;;;17.60;15.80;;;8.70;97.20;;;;;;1714160;28;20569;-81
2021/12/26 09:46:19;;;;;;;18.58;16.70;;;8.80;97.20;;;;;;1714458;28;20273;-83
2021/12/26 09:47:11;;;;;;;18.10;16.23;;;8.80;97.20;;;;;;1714552;28;20197;-78
2021/12/26 09:48:02;;;;;;;15.98;14.38;;;8.80;97.20;;;;;;1715469;28;20288;-78
2021/12/26 09:48:53;;;;;;;16.27;14.57;;;8.80;97.20;;;;;;1714606;28;20237;-78
2021/12/26 09:49:44;;;;;;;16.35;14.75;;;8.80;97.20;;;;;;1715039;28;20244;-77
2021/12/26 09:50:36;;;;;;;16.70;15.00;;;8.80;97.20;;;;;;1715077;28;20205;-81
2021/12/26 09:51:29;;;;;;;15.98;14.32;;;8.80;97.20;;;;;;1715088;28;20205;-80
2021/12/26 09:52:20;;;;;;;17.42;15.60;;;8.80;97.20;;;;;;1714839;28;20280;-78
2021/12/26 09:53:13;;;;;;;17.00;15.20;;;8.80;97.20;;;;;;1714594;28;20587;-79
2021/12/26 09:54:06;;;;;;;16.45;14.85;;;8.80;97.20;;;;;;1714619;28;20230;-79
2021/12/26 09:54:57;;;;;;;18.75;15.43;;;8.80;97.20;;;;;;1714763;28;20233;-79
2021/12/26 09:55:49;;;;;;;16.97;15.37;;;8.90;97.20;;;;;;1714710;28;20233;-80
2021/12/26 09:56:39;;;;;;;16.75;15.00;;;8.90;97.20;;;;;;1714738;28;20449;-79
2021/12/26 09:57:31;;;;;;;17.43;14.93;;;8.90;97.20;;;;;;1715142;28;20198;-79
2021/12/26 09:58:22;;;;;;;15.45;14.00;;;8.90;97.20;;;;;;1715191;28;20233;-80
2021/12/26 09:59:17;;;;;;;14.50;13.10;;;8.90;97.20;;;;;;1714811;28;20194;-81
2021/12/26 10:00:19;;;;;;;18.48;16.25;;;8.80;97.20;;;;;;1715071;28;20341;-81
2021/12/26 10:01:13;;;;;;;15.80;14.20;;;8.80;97.20;;;;;;1714937;28;20230;-82
2021/12/26 10:02:09;;;;;;;17.48;15.65;;;8.80;97.20;;;;;;1714851;28;20209;-82
2021/12/26 10:03:16;;;;;;;15.80;14.20;;;8.80;97.20;;;;;;1714908;28;20265;-81
2021/12/26 10:04:21;;;;;;;16.50;14.90;;;8.80;97.20;;;;;;1714459;28;20226;-82
2021/12/26 10:05:12;;;;;;;16.55;14.88;;;8.80;97.20;;;;;;1714988;28;20241;-80
2021/12/26 10:06:10;;;;;;;17.33;15.50;;;8.80;97.20;;;;;;1715409;28;20210;-83
2021/12/26 10:07:03;;;;;;;16.02;14.45;;;8.80;97.20;;;;;;1715665;28;20468;-80
2021/12/26 10:08:06;;;;;;;16.35;14.65;;;8.90;97.20;;;;;;1715543;28;20202;-80
2021/12/26 10:09:01;;;;;;;17.15;15.18;;;8.90;97.20;;;;;;1715406;28;20244;-80
2021/12/26 10:09:54;;;;;;;17.05;15.25;;;8.90;97.20;;;;;;1715521;28;20212;-81
2021/12/26 10:11:07;;;;;;;15.43;13.82;;;9.00;97.20;;;;;;1715531;28;20616;-83
2021/12/26 10:12:00;;;;;;;16.65;15.05;;;9.00;97.20;;;;;;1715590;28;20197;-82
2021/12/26 10:12:51;;;;;;;14.98;13.55;;;9.00;97.20;;;;;;1715335;28;20212;-81
2021/12/26 10:13:46;;;;;;;17.10;15.30;;;9.00;97.20;;;;;;1715351;28;20317;-81
2021/12/26 10:14:38;;;;;;;16.73;14.95;;;9.00;97.20;;;;;;1715314;28;20229;-81
2021/12/26 10:15:47;;;;;;;14.68;13.27;;;9.10;97.20;;;;;;1715570;28;20273;-80
2021/12/26 10:16:43;;;;;;;16.77;14.65;;;9.10;97.20;;;;;;1715788;28;20201;-79
2021/12/26 10:17:34;;;;;;;16.67;15.07;;;9.10;97.20;;;;;;1715618;28;20217;-80
2021/12/26 10:18:29;;;;;;;15.83;14.17;;;9.20;97.20;;;;;;1714936;28;20700;-80
2021/12/26 10:19:21;;;;;;;15.60;14.02;;;9.20;97.20;;;;;;1715278;28;20230;-80
2021/12/26 10:20:12;;;;;;;16.65;15.02;;;9.30;97.20;;;;;;1715252;28;20212;-81
2021/12/26 10:21:03;;;;;;;15.87;14.27;;;9.30;97.20;;;;;;1715380;28;20202;-81
2021/12/26 10:21:57;;;;;;;15.90;14.40;;;9.30;97.20;;;;;;1715459;28;20209;-84
2021/12/26 10:22:48;;;;;;;17.63;15.82;;;9.30;97.20;;;;;;1715550;28;20594;-79
2021/12/26 10:23:44;;;;;;;17.73;15.83;;;9.30;97.20;;;;;;1715256;28;20241;-79
2021/12/26 10:24:39;;;;;;;17.30;15.40;;;9.30;97.20;;;;;;1715705;28;20217;-81
2021/12/26 10:25:36;;;;;;;16.88;15.27;;;9.40;97.20;;;;;;1715585;28;20233;-80
2021/12/26 10:26:30;;;;;;;18.00;16.20;;;9.40;97.20;;;;;;1715316;28;20208;-83
2021/12/26 10:27:23;;;;;;;19.50;15.95;;;9.40;97.20;;;;;;1715261;28;20720;-82